createdAt,value
2017-09-20T00:01:50.224Z,41.50
2017-09-20T00:04:17.662Z,43.60
2017-09-20T00:06:45.087Z,44.17
2017-09-20T00:09:12.529Z,47.57
2017-09-20T00:11:40.345Z,44.93
2017-09-20T00:14:07.821Z,42.73
2017-09-20T00:16:35.358Z,43.60
2017-09-20T00:19:02.759Z,43.50
2017-09-20T00:21:30.202Z,45.43
2017-09-20T00:23:57.659Z,41.60
2017-09-20T00:26:25.103Z,46.07
2017-09-20T00:28:52.560Z,43.37
2017-09-20T00:31:19.975Z,41.00
2017-09-20T00:33:47.487Z,43.77
2017-09-20T00:36:14.948Z,48.57
2017-09-20T00:38:42.380Z,44.63
2017-09-20T00:41:10.202Z,42.73
2017-09-20T00:43:37.666Z,42.67
2017-09-20T00:46:05.134Z,47.53
2017-09-20T00:48:32.555Z,45.60
2017-09-20T00:51:00.015Z,46.70
2017-09-20T00:53:27.446Z,45.93
2017-09-20T00:55:54.867Z,44.60
2017-09-20T00:58:22.343Z,53.63
2017-09-20T01:00:49.896Z,48.10
2017-09-20T01:03:17.342Z,52.20
2017-09-20T01:05:44.787Z,44.77
2017-09-20T01:08:12.207Z,59.60
2017-09-20T01:10:39.692Z,57.27
2017-09-20T01:13:08.674Z,55.60
2017-09-20T01:15:36.091Z,53.97
2017-09-20T01:18:03.719Z,51.57
2017-09-20T01:20:43.599Z,53.97
2017-09-20T01:23:22.117Z,50.40
2017-09-20T01:25:49.548Z,47.90
2017-09-20T01:28:17.375Z,49.87
2017-09-20T01:30:45.326Z,49.87
2017-09-20T01:33:12.761Z,46.73
2017-09-20T01:35:40.192Z,49.90
2017-09-20T01:38:07.716Z,51.77
2017-09-20T01:40:35.148Z,55.40
2017-09-20T01:43:02.927Z,53.10
2017-09-20T01:45:30.362Z,56.30
2017-09-20T01:47:58.181Z,55.67
2017-09-20T01:50:25.634Z,50.47
2017-09-20T01:52:53.274Z,57.37
2017-09-20T01:55:21.080Z,54.93
2017-09-20T01:57:48.528Z,54.93
2017-09-20T02:00:16.197Z,56.30
2017-09-20T02:02:43.622Z,52.77
2017-09-20T02:05:12.591Z,61.03
2017-09-20T02:07:40.037Z,53.57
2017-09-20T02:10:07.477Z,55.50
2017-09-20T02:12:34.956Z,66.60
2017-09-20T02:15:02.418Z,54.67
2017-09-20T02:17:30.061Z,51.33
2017-09-20T02:19:57.543Z,57.53
2017-09-20T02:22:25.024Z,60.77
2017-09-20T02:24:52.644Z,53.97
2017-09-20T02:27:20.193Z,53.20
2017-09-20T02:29:48.117Z,53.43
2017-09-20T02:32:15.701Z,55.10
2017-09-20T02:34:43.152Z,55.00
2017-09-20T02:37:10.605Z,57.03
2017-09-20T02:39:38.092Z,55.53
2017-09-20T02:42:06.012Z,54.43
2017-09-20T02:44:33.484Z,51.17
2017-09-20T02:47:03.707Z,54.07
2017-09-20T02:49:31.161Z,56.67
2017-09-20T02:51:58.629Z,60.87
2017-09-20T02:54:26.122Z,53.23
2017-09-20T02:56:53.580Z,62.17
2017-09-20T02:59:21.033Z,55.40
2017-09-20T03:01:48.612Z,52.83
2017-09-20T03:04:16.070Z,56.83
2017-09-20T03:06:43.529Z,58.90
2017-09-20T03:09:11.068Z,56.07
2017-09-20T03:11:38.529Z,57.43
2017-09-20T03:14:05.987Z,59.80
2017-09-20T03:16:33.680Z,57.80
2017-09-20T03:19:01.155Z,56.50
2017-09-20T03:21:28.717Z,63.47
2017-09-20T03:23:56.193Z,62.90
2017-09-20T03:26:23.713Z,61.37
2017-09-20T03:28:51.305Z,61.80
2017-09-20T03:31:18.892Z,57.53
2017-09-20T03:33:46.771Z,57.63
2017-09-20T03:36:14.710Z,64.10
2017-09-20T03:38:42.325Z,60.90
2017-09-20T03:41:09.772Z,54.73
2017-09-20T03:43:37.611Z,60.07
2017-09-20T03:46:05.124Z,60.80
2017-09-20T03:48:32.604Z,61.07
2017-09-20T03:51:00.438Z,58.43
2017-09-20T03:53:28.463Z,56.57
2017-09-20T03:55:55.923Z,59.30
2017-09-20T03:58:23.361Z,63.97
2017-09-20T04:00:50.817Z,62.13
2017-09-20T04:03:18.267Z,58.03
2017-09-20T04:05:46.121Z,58.07
2017-09-20T04:08:13.995Z,49.60
2017-09-20T04:10:41.827Z,51.70
2017-09-20T04:13:09.276Z,55.33
2017-09-20T04:15:36.729Z,48.27
2017-09-20T04:18:04.176Z,51.90
2017-09-20T04:20:31.644Z,59.37
2017-09-20T04:22:59.090Z,54.13
2017-09-20T04:25:26.545Z,51.10
2017-09-20T04:27:54.468Z,58.87
2017-09-20T04:30:21.896Z,56.33
2017-09-20T04:32:49.386Z,52.90
2017-09-20T04:35:18.749Z,56.00
2017-09-20T04:37:46.217Z,54.10
2017-09-20T04:40:13.724Z,59.70
2017-09-20T04:42:41.268Z,59.87
2017-09-20T04:45:08.719Z,58.93
2017-09-20T04:47:36.188Z,53.00
2017-09-20T04:50:03.641Z,52.23
2017-09-20T04:52:31.091Z,54.00
2017-09-20T04:54:58.932Z,57.27
2017-09-20T04:57:26.800Z,57.43
2017-09-20T04:59:54.253Z,58.13
2017-09-20T05:02:23.313Z,58.07
2017-09-20T05:04:50.757Z,59.00
2017-09-20T05:07:18.188Z,51.30
2017-09-20T05:09:45.915Z,52.30
2017-09-20T05:12:13.366Z,51.50
2017-09-20T05:14:40.795Z,50.43
2017-09-20T05:17:08.653Z,50.30
2017-09-20T05:19:36.090Z,52.73
2017-09-20T05:22:03.534Z,49.00
2017-09-20T05:24:30.970Z,51.80
2017-09-20T05:26:58.390Z,52.77
2017-09-20T05:29:25.843Z,48.77
2017-09-20T05:31:53.267Z,52.90
2017-09-20T05:34:20.714Z,48.40
2017-09-20T05:36:48.159Z,47.93
2017-09-20T05:39:15.594Z,56.10
2017-09-20T05:41:43.048Z,51.00
2017-09-20T05:44:10.496Z,50.27
2017-09-20T05:46:38.031Z,49.10
2017-09-20T05:49:05.509Z,51.90
2017-09-20T05:51:33.161Z,50.43
2017-09-20T05:54:00.585Z,57.00
2017-09-20T05:56:28.404Z,52.73
2017-09-20T05:58:56.153Z,53.30
2017-09-20T06:01:23.620Z,57.30
2017-09-20T06:03:51.047Z,52.60
2017-09-20T06:06:18.896Z,49.87
2017-09-20T06:08:46.354Z,46.37
2017-09-20T06:11:13.808Z,49.93
2017-09-20T06:13:41.442Z,48.57
2017-09-20T06:16:08.888Z,50.63
2017-09-20T06:18:36.334Z,48.13
2017-09-20T06:21:04.496Z,49.20
2017-09-20T06:23:31.943Z,48.47
2017-09-20T06:25:59.412Z,43.93
2017-09-20T06:28:26.858Z,48.23
2017-09-20T06:30:54.341Z,47.43
2017-09-20T06:33:21.783Z,53.77
2017-09-20T06:35:49.252Z,45.97
2017-09-20T06:38:16.794Z,55.90
2017-09-20T06:40:44.233Z,50.30
2017-09-20T06:43:13.504Z,46.10
2017-09-20T06:45:41.322Z,48.33
2017-09-20T06:48:09.099Z,47.67
2017-09-20T06:50:36.546Z,42.70
2017-09-20T06:53:03.992Z,46.37
2017-09-20T06:55:31.507Z,41.90
2017-09-20T06:57:59.127Z,46.13
2017-09-20T07:00:26.764Z,45.17
2017-09-20T07:02:54.587Z,49.00
2017-09-20T07:05:22.046Z,51.40
2017-09-20T07:07:49.632Z,43.10
2017-09-20T07:10:17.173Z,46.70
2017-09-20T07:12:44.620Z,40.63
2017-09-20T07:15:12.067Z,40.20
2017-09-20T07:17:39.539Z,45.40
2017-09-20T07:20:07.233Z,42.23
2017-09-20T07:22:34.683Z,43.30
2017-09-20T07:25:02.146Z,44.03
2017-09-20T07:27:29.620Z,40.47
2017-09-20T07:29:57.139Z,49.13
2017-09-20T07:32:25.236Z,46.90
2017-09-20T07:34:52.694Z,40.60
2017-09-20T07:37:20.121Z,42.20
2017-09-20T07:39:47.973Z,41.77
2017-09-20T07:42:15.417Z,36.37
2017-09-20T07:44:42.920Z,42.60
2017-09-20T07:47:10.790Z,36.70
2017-09-20T07:49:38.714Z,43.10
2017-09-20T07:52:06.179Z,42.20
2017-09-20T07:54:33.744Z,35.43
2017-09-20T07:57:01.187Z,41.73
2017-09-20T07:59:28.626Z,42.80
2017-09-20T08:01:56.362Z,40.87
2017-09-20T08:04:23.810Z,40.07
2017-09-20T08:06:51.265Z,44.80
2017-09-20T08:09:18.927Z,36.67
2017-09-20T08:11:46.382Z,37.20
2017-09-20T08:14:14.131Z,43.27
2017-09-20T08:16:41.599Z,40.30
2017-09-20T08:19:09.060Z,32.20
2017-09-20T08:21:36.759Z,34.23
2017-09-20T08:24:04.219Z,29.40
2017-09-20T08:26:31.702Z,26.80
2017-09-20T08:28:59.194Z,24.80
2017-09-20T08:31:26.653Z,28.67
2017-09-20T08:33:54.572Z,28.13
2017-09-20T08:36:22.079Z,31.40
2017-09-20T08:38:49.944Z,29.03
2017-09-20T08:41:17.802Z,29.63
2017-09-20T08:43:45.280Z,27.97
2017-09-20T08:46:13.105Z,32.67
2017-09-20T08:48:40.550Z,33.37
2017-09-20T08:51:08.116Z,36.80
2017-09-20T08:56:09.694Z,30.03
2017-09-20T08:58:37.124Z,28.07
2017-09-20T09:01:05.551Z,28.70
2017-09-20T09:03:33.210Z,26.87
2017-09-20T09:06:00.661Z,26.70
2017-09-20T09:08:28.101Z,27.10
2017-09-20T09:10:55.579Z,33.37
2017-09-20T09:13:23.073Z,25.20
2017-09-20T09:15:50.507Z,34.33
2017-09-20T09:18:18.198Z,27.17
2017-09-20T09:20:45.835Z,29.50
2017-09-20T09:23:13.337Z,25.83
2017-09-20T09:25:40.773Z,29.43
2017-09-20T09:28:08.479Z,27.43
2017-09-20T09:30:35.942Z,38.47
2017-09-20T09:33:03.371Z,29.33
2017-09-20T09:35:30.943Z,31.47
2017-09-20T09:37:58.372Z,26.90
2017-09-20T09:40:25.810Z,29.30
2017-09-20T09:42:53.805Z,27.17
2017-09-20T09:45:21.232Z,30.80
2017-09-20T09:47:48.743Z,30.80
2017-09-20T09:50:16.216Z,25.97
2017-09-20T09:52:43.665Z,25.97
2017-09-20T09:55:11.129Z,31.80
2017-09-20T09:57:38.606Z,25.47
2017-09-20T10:00:06.035Z,26.50
2017-09-20T10:02:33.485Z,27.83
2017-09-20T10:05:01.357Z,28.53
2017-09-20T10:07:28.825Z,26.63
2017-09-20T10:09:56.301Z,30.17
2017-09-20T10:12:23.746Z,27.10
2017-09-20T10:14:51.187Z,27.53
2017-09-20T10:17:19.117Z,30.47
2017-09-20T10:19:46.581Z,25.97
2017-09-20T10:22:14.040Z,28.87
2017-09-20T10:24:41.567Z,25.63
2017-09-20T10:27:09.423Z,30.53
2017-09-20T10:29:36.890Z,24.47
2017-09-20T10:32:04.627Z,28.93
2017-09-20T10:34:32.069Z,32.03
2017-09-20T10:36:59.506Z,25.70
2017-09-20T10:39:26.997Z,31.23
2017-09-20T10:41:54.636Z,23.97
2017-09-20T10:44:22.083Z,25.03
2017-09-20T10:46:49.734Z,30.50
2017-09-20T10:49:17.593Z,27.37
2017-09-20T10:51:45.037Z,31.77
2017-09-20T10:54:12.665Z,31.80
2017-09-20T10:56:40.302Z,33.90
2017-09-20T10:59:08.247Z,28.27
2017-09-20T11:01:35.973Z,28.30
2017-09-20T11:04:03.430Z,29.13
2017-09-20T11:06:30.895Z,27.50
2017-09-20T11:08:58.644Z,26.90
2017-09-20T11:11:26.640Z,26.63
2017-09-20T11:13:54.450Z,24.57
2017-09-20T11:16:21.918Z,21.17
2017-09-20T11:18:49.408Z,21.90
2017-09-20T11:21:17.492Z,25.70
2017-09-20T11:23:44.995Z,26.33
2017-09-20T11:26:12.547Z,22.63
2017-09-20T11:28:40.029Z,19.90
2017-09-20T11:31:07.493Z,27.03
2017-09-20T11:33:34.959Z,22.13
2017-09-20T11:36:02.569Z,22.23
2017-09-20T11:38:30.959Z,21.50
2017-09-20T11:40:58.839Z,20.37
2017-09-20T11:43:26.611Z,22.53
2017-09-20T11:45:54.472Z,17.93
2017-09-20T11:48:22.252Z,22.50
2017-09-20T11:50:50.250Z,20.97
2017-09-20T11:53:17.959Z,19.50
2017-09-20T11:55:46.091Z,19.17
2017-09-20T11:58:13.607Z,19.13
2017-09-20T12:00:41.642Z,19.00
2017-09-20T12:03:09.290Z,21.70
2017-09-20T12:05:36.732Z,17.17
2017-09-20T12:08:04.199Z,17.90
2017-09-20T12:10:31.713Z,16.50
2017-09-20T12:12:59.138Z,14.97
2017-09-20T12:15:26.605Z,14.17
2017-09-20T12:17:54.079Z,16.60
2017-09-20T12:20:21.523Z,15.53
2017-09-20T12:22:49.026Z,15.17
2017-09-20T12:25:16.503Z,15.13
2017-09-20T12:27:44.364Z,15.87
2017-09-20T12:30:11.824Z,11.90
2017-09-20T12:32:39.288Z,16.37
2017-09-20T12:35:07.156Z,13.93
2017-09-20T12:37:34.593Z,13.10
2017-09-20T12:40:02.263Z,16.53
2017-09-20T12:42:29.774Z,20.00
2017-09-20T12:44:57.356Z,16.30
2017-09-20T12:47:24.861Z,11.93
2017-09-20T12:49:53.608Z,11.80
2017-09-20T12:52:21.066Z,10.83
2017-09-20T12:54:48.534Z,10.33
2017-09-20T12:57:16.277Z,12.80
2017-09-20T12:59:44.138Z,11.67
2017-09-20T13:02:12.081Z,10.43
2017-09-20T13:04:39.917Z,82.40
2017-09-20T13:07:07.350Z,8.90
2017-09-20T13:09:35.255Z,11.53
2017-09-20T13:12:02.757Z,52.17
2017-09-20T13:14:30.206Z,12.70
2017-09-20T13:16:57.783Z,10.03
2017-09-20T13:19:25.451Z,8.47
2017-09-20T13:21:52.904Z,7.30
2017-09-20T13:24:20.610Z,9.00
2017-09-20T13:26:48.490Z,13.47
2017-09-20T13:29:15.956Z,11.80
2017-09-20T13:31:43.381Z,12.13
2017-09-20T13:34:10.892Z,11.80
2017-09-20T13:36:38.355Z,10.60
2017-09-20T13:39:05.795Z,12.03
2017-09-20T13:41:34.409Z,17.23
2017-09-20T13:44:01.873Z,14.13
2017-09-20T13:46:29.365Z,14.83
2017-09-20T13:48:56.974Z,14.80
2017-09-20T13:51:24.871Z,14.87
2017-09-20T13:53:52.304Z,12.07
2017-09-20T13:56:20.503Z,11.43
2017-09-20T13:58:47.924Z,13.30
2017-09-20T14:01:15.654Z,13.43
2017-09-20T14:03:43.934Z,12.23
2017-09-20T14:06:11.373Z,11.20
2017-09-20T14:08:38.813Z,12.30
2017-09-20T14:11:06.418Z,10.40
2017-09-20T14:13:34.112Z,8.17
2017-09-20T14:16:01.571Z,7.63
2017-09-20T14:18:29.002Z,7.67
2017-09-20T14:20:57.964Z,9.70
2017-09-20T14:23:25.877Z,10.53
2017-09-20T14:25:53.457Z,10.73
2017-09-20T14:28:21.138Z,10.87
2017-09-20T14:30:48.564Z,12.40
2017-09-20T14:33:15.998Z,12.60
2017-09-20T14:35:43.553Z,13.77
2017-09-20T14:38:11.402Z,12.00
2017-09-20T14:40:38.855Z,10.10
2017-09-20T14:43:06.509Z,13.80
2017-09-20T14:45:34.367Z,12.57
2017-09-20T14:48:01.804Z,12.20
2017-09-20T14:50:29.248Z,11.10
2017-09-20T14:52:56.703Z,15.20
2017-09-20T14:55:24.531Z,10.87
2017-09-20T14:57:51.996Z,10.67
2017-09-20T15:00:19.442Z,14.20
2017-09-20T15:02:46.870Z,10.47
2017-09-20T15:05:14.336Z,7.13
2017-09-20T15:07:42.165Z,7.70
2017-09-20T15:10:09.639Z,7.67
2017-09-20T15:12:37.124Z,8.50
2017-09-20T15:15:05.018Z,8.53
2017-09-20T15:17:32.517Z,9.50
2017-09-20T15:20:00.068Z,13.07
2017-09-20T15:22:27.524Z,8.80
2017-09-20T15:24:54.957Z,9.87
2017-09-20T15:27:22.544Z,13.37
2017-09-20T15:29:49.973Z,10.20
2017-09-20T15:32:17.840Z,11.50
2017-09-20T15:34:45.690Z,11.20
2017-09-20T15:37:13.126Z,8.90
2017-09-20T15:39:40.792Z,8.53
2017-09-20T15:42:08.217Z,14.40
2017-09-20T15:44:35.702Z,14.90
2017-09-20T15:47:03.578Z,9.73
2017-09-20T15:49:30.990Z,13.80
2017-09-20T15:51:58.861Z,12.33
2017-09-20T15:54:26.797Z,13.97
2017-09-20T15:56:54.300Z,12.60
2017-09-20T15:59:22.297Z,14.00
2017-09-20T16:01:49.719Z,14.77
2017-09-20T16:04:17.550Z,15.90
2017-09-20T16:06:45.133Z,12.87
2017-09-20T16:09:12.581Z,11.43
2017-09-20T16:11:40.070Z,14.33
2017-09-20T16:14:07.504Z,14.23
2017-09-20T16:16:34.969Z,12.97
2017-09-20T16:19:02.449Z,15.73
2017-09-20T16:21:30.030Z,16.70
2017-09-20T16:23:57.450Z,16.47
2017-09-20T16:26:24.964Z,16.70
2017-09-20T16:28:52.436Z,17.40
2017-09-20T16:31:19.946Z,12.70
2017-09-20T16:33:47.406Z,20.60
2017-09-20T16:36:14.937Z,15.20
2017-09-20T16:38:42.545Z,14.10
2017-09-20T16:41:10.098Z,16.30
2017-09-20T16:43:37.543Z,14.70
2017-09-20T16:46:05.095Z,12.87
2017-09-20T16:48:32.503Z,14.80
2017-09-20T16:50:59.923Z,17.77
2017-09-20T16:53:27.443Z,15.27
2017-09-20T16:55:54.893Z,15.03
2017-09-20T16:58:22.352Z,11.50
2017-09-20T17:00:49.930Z,13.70
2017-09-20T17:03:17.869Z,16.17
2017-09-20T17:05:45.354Z,12.07
2017-09-20T17:08:13.235Z,14.30
2017-09-20T17:10:40.760Z,12.50
2017-09-20T17:13:08.225Z,12.60
2017-09-20T17:15:35.657Z,16.30
2017-09-20T17:18:03.117Z,17.20
2017-09-20T17:20:30.600Z,17.33
2017-09-20T17:22:58.042Z,15.20
2017-09-20T17:25:25.528Z,14.53
2017-09-20T17:27:53.131Z,12.87
2017-09-20T17:30:20.559Z,12.40
2017-09-20T17:32:48.003Z,11.33
2017-09-20T17:35:15.455Z,10.40
2017-09-20T17:37:42.901Z,11.13
2017-09-20T17:40:10.876Z,12.13
2017-09-20T17:42:38.703Z,12.57
2017-09-20T17:45:06.131Z,12.97
2017-09-20T17:47:33.581Z,12.37
2017-09-20T17:50:01.007Z,12.77
2017-09-20T17:52:28.427Z,12.47
2017-09-20T17:54:56.076Z,15.03
2017-09-20T17:57:23.542Z,14.10
2017-09-20T17:59:50.964Z,12.70
2017-09-20T18:02:18.460Z,13.60
2017-09-20T18:04:45.883Z,18.63
2017-09-20T18:07:13.332Z,16.53
2017-09-20T18:09:40.956Z,15.43
2017-09-20T18:12:08.514Z,14.80
2017-09-20T18:14:35.931Z,17.03
2017-09-20T18:17:03.368Z,16.77
2017-09-20T18:19:30.815Z,23.00
2017-09-20T18:21:58.236Z,16.83
2017-09-20T18:24:26.148Z,16.97
2017-09-20T18:26:53.585Z,17.77
2017-09-20T18:29:21.276Z,17.90
2017-09-20T18:31:48.704Z,15.67
2017-09-20T18:34:16.170Z,15.63
2017-09-20T18:36:44.071Z,18.70
2017-09-20T18:39:11.486Z,15.43
2017-09-20T18:41:39.372Z,18.77
2017-09-20T18:44:07.619Z,17.50
2017-09-20T18:49:25.843Z,16.03
2017-09-20T18:51:53.297Z,17.33
2017-09-20T18:54:23.728Z,19.67
2017-09-20T18:56:51.399Z,17.97
2017-09-20T18:59:18.845Z,16.63
2017-09-20T19:01:46.272Z,18.77
2017-09-20T19:04:14.382Z,15.43
2017-09-20T19:06:41.818Z,15.13
2017-09-20T19:09:09.760Z,17.07
2017-09-20T19:11:37.208Z,17.53
2017-09-20T19:14:04.632Z,19.20
2017-09-20T19:16:32.412Z,17.47
2017-09-20T19:19:00.089Z,18.33
2017-09-20T19:21:27.504Z,19.47
2017-09-20T19:23:55.321Z,19.93
2017-09-20T19:26:23.727Z,19.57
2017-09-20T19:28:51.154Z,17.80
2017-09-20T19:31:18.580Z,17.27
2017-09-20T19:33:46.608Z,19.10
2017-09-20T19:36:14.038Z,17.90
2017-09-20T19:38:41.459Z,16.67
2017-09-20T19:41:08.886Z,21.87
2017-09-20T19:43:36.431Z,20.10
2017-09-20T19:46:03.911Z,22.73
2017-09-20T19:48:31.375Z,19.40
2017-09-20T19:50:58.811Z,18.83
2017-09-20T19:53:26.288Z,19.90
2017-09-20T19:55:53.724Z,19.47
2017-09-20T19:58:21.617Z,20.70
2017-09-20T20:00:49.047Z,19.80
2017-09-20T20:03:16.949Z,17.10
2017-09-20T20:05:44.400Z,17.67
2017-09-20T20:08:12.221Z,16.00
2017-09-20T20:10:39.657Z,17.83
2017-09-20T20:13:07.118Z,18.00
2017-09-20T20:15:34.682Z,20.30
2017-09-20T20:18:02.273Z,17.83
2017-09-20T20:20:29.701Z,20.70
2017-09-20T20:22:57.216Z,22.57
2017-09-20T20:25:24.649Z,18.93
2017-09-20T20:27:52.188Z,21.17
2017-09-20T20:30:19.782Z,16.67
2017-09-20T20:32:47.201Z,18.47
2017-09-20T20:35:14.627Z,19.63
2017-09-20T20:37:42.068Z,19.10
2017-09-20T20:40:09.493Z,21.10
2017-09-20T20:42:36.920Z,18.57
2017-09-20T20:45:04.767Z,18.80
2017-09-20T20:47:32.203Z,21.43
2017-09-20T20:49:59.637Z,17.93
2017-09-20T20:52:28.896Z,18.37
2017-09-20T20:54:56.339Z,17.23
2017-09-20T20:57:23.763Z,16.17
2017-09-20T20:59:51.202Z,19.53
2017-09-20T21:02:19.314Z,19.20
2017-09-20T21:04:49.775Z,15.87
2017-09-20T21:07:17.215Z,19.60
2017-09-20T21:09:44.667Z,22.60
2017-09-20T21:12:13.252Z,16.73
2017-09-20T21:14:40.761Z,16.00
2017-09-20T21:17:08.323Z,17.30
2017-09-20T21:19:35.767Z,14.50
2017-09-20T21:22:03.342Z,15.30
2017-09-20T21:24:30.818Z,13.40
2017-09-20T21:26:58.338Z,13.57
2017-09-20T21:29:25.765Z,15.37
2017-09-20T21:31:53.674Z,14.43
2017-09-20T21:34:21.087Z,15.97
2017-09-20T21:36:48.903Z,16.67
2017-09-20T21:39:17.409Z,14.50
2017-09-20T21:41:44.842Z,17.33
2017-09-20T21:44:12.318Z,15.17
2017-09-20T21:46:39.799Z,16.40
2017-09-20T21:49:07.231Z,13.23
2017-09-20T21:51:34.651Z,16.27
2017-09-20T21:54:02.693Z,15.23
2017-09-20T21:56:30.119Z,17.70
2017-09-20T21:58:57.668Z,19.73
2017-09-20T22:01:25.570Z,18.03
2017-09-20T22:03:53.043Z,15.13
2017-09-20T22:06:20.686Z,15.10
2017-09-20T22:08:48.107Z,19.20
2017-09-20T22:11:15.951Z,17.73
2017-09-20T22:13:43.589Z,18.40
2017-09-20T22:16:23.036Z,15.30
2017-09-20T22:19:02.477Z,15.43
2017-09-20T22:21:42.039Z,19.57
2017-09-20T22:24:21.712Z,12.93
2017-09-20T22:26:48.685Z,16.30
2017-09-20T22:29:16.119Z,14.67
2017-09-20T22:31:44.001Z,18.70
2017-09-20T22:34:11.480Z,15.50
2017-09-20T22:36:38.902Z,12.27
2017-09-20T22:39:06.352Z,21.17
2017-09-20T22:41:33.784Z,15.83
2017-09-20T22:44:01.219Z,17.50
2017-09-20T22:46:28.699Z,16.20
2017-09-20T22:48:56.155Z,16.10
2017-09-20T22:51:23.636Z,16.87
2017-09-20T22:53:51.269Z,19.00
2017-09-20T22:56:18.715Z,18.03
2017-09-20T22:58:46.570Z,18.37
2017-09-20T23:01:14.082Z,17.50
2017-09-20T23:03:41.503Z,17.50
2017-09-20T23:06:09.712Z,18.13
2017-09-20T23:08:37.178Z,15.57
2017-09-20T23:11:04.614Z,16.53
2017-09-20T23:13:32.515Z,16.20
2017-09-20T23:15:59.957Z,16.80
2017-09-20T23:18:27.440Z,14.37
2017-09-20T23:20:55.116Z,16.40
2017-09-20T23:23:22.548Z,13.70
2017-09-20T23:25:49.972Z,18.80
2017-09-20T23:28:17.459Z,14.70
2017-09-20T23:30:45.286Z,18.90
2017-09-20T23:33:13.154Z,14.10
2017-09-20T23:35:40.702Z,14.43
2017-09-20T23:38:08.150Z,15.20
2017-09-20T23:40:35.583Z,15.43
2017-09-20T23:43:03.709Z,12.93
2017-09-20T23:45:31.134Z,14.97
2017-09-20T23:47:58.575Z,15.83
2017-09-20T23:50:26.479Z,16.23
2017-09-20T23:52:54.047Z,12.20
2017-09-20T23:55:21.463Z,12.40
2017-09-20T23:57:49.094Z,12.60
